Airfield :
LOGIN :

Register | Disclaimer

   EN    FR    IT 

 










Legend :    VFR   Marginal VFR   IFR   Intensive IFR   Very Intensive IFR
Visi :
Ceiling :
>= 8 km
>= 3000ft
5 to 8 km
1000 to 3000 ft
1500m to 5 km
500 to 1000 ft
800 to 1500m
200 to 500 ft
< 800m
< 200 ft
Symbols :   Thunderstorms  Fog  Heavy snow  Heavy precipitations  Wind > 20 kt
SIGMETs :     Misc.  Thunderstorms  Icing  Turbulence  Mountain Waves  Volcanic Ashes







- Airport Elevation : 2220 ft


LOXZ - Zeltweg AB

CURRENT METAR :
  • 251420Z 17012G23KT 30KM SCT050CU 17/03 Q1007 NOSIG

EXPIRED METARs :
  • 251350Z 19014KT 30KM SCT050CU 16/03 Q1007 NOSIG
  • 251320Z 20013KT 30KM SCT050CU 17/03 Q1008 NOSIG
  • 251250Z 19013KT 30KM SCT050CU 17/03 Q1008 NOSIG
  • 251220Z 21013KT 30KM SCT050CU 18/02 Q1008 NOSIG
  • 251150Z 20010KT 30KM SCT050CU 17/02 Q1008 NOSIG

TAF TAF LOXZ
Valid from the 25 at 12:00 until the 25 at 21:00 UTC


251115Z 2512/2521 24010KT 9999 FEW040 SCT300
TEMPO 2512/2518 20015G25KT FEW040 SCT050 BKN300
No reported NOTAMs for that airfield.



MET'MAP, your aeronautical weather chart ! - Copyright ORBIFLY December 2007 - Disclaimer

ORBIFLY MET'MAP TEAM :

Programming & Development : Alexandra Zaïnal
Concept & Development : Baudouin d'Aumeries
Co-Development & Prog : Marc-Olivier Méhu
Technical & hardware support : Manuel Goepfert

Contact : metmap@orbifly.com




SOURCES & CREDITS :

   NOAA